Time;durP1;ratioP1;P1;durP2;ratioP2;P2;SDS_P1;SDS_P2;PMS_P1;PMS_P2;Temp;Humidity;BMP_temperature;BMP_pressure;BME280_temperature;BME280_humidity;BME280_pressure;Samples;Min_cycle;Max_cycle;Signal;HPM_P1;HPM_P2
2021/08/28 03:01:41;;;;;;;;;;;13.30;99.90;;;;;;5777595;22;83953;-76
2021/08/28 03:04:07;;;;;;;3.30;1.20;;;13.30;99.90;;;;;;4960132;28;83344;-76
2021/08/28 03:06:35;;;;;;;3.92;1.52;;;13.40;99.90;;;;;;4957686;28;83438;-78
2021/08/28 03:09:01;;;;;;;3.30;1.10;;;13.40;99.90;;;;;;4960164;28;81906;-77
2021/08/28 03:11:27;;;;;;;3.40;1.13;;;13.30;99.90;;;;;;4972856;28;81954;-76
2021/08/28 03:13:53;;;;;;;3.67;1.10;;;13.40;99.90;;;;;;4961945;28;82246;-76
2021/08/28 03:16:22;;;;;;;3.80;1.48;;;13.30;99.90;;;;;;4958800;28;82592;-76
2021/08/28 03:18:52;;;;;;;6.40;1.70;;;13.30;99.90;;;;;;4960310;28;82301;-74
2021/08/28 03:21:21;;;;;;;3.88;1.38;;;13.40;99.90;;;;;;4959053;28;82600;-74
2021/08/28 03:23:48;;;;;;;3.22;1.33;;;13.40;99.90;;;;;;4961933;28;82100;-74
2021/08/28 03:26:17;;;;;;;3.92;1.40;;;13.50;99.90;;;;;;4959959;28;82797;-74
2021/08/28 03:28:44;;;;;;;4.22;1.23;;;13.50;99.90;;;;;;4960203;28;82032;-76
2021/08/28 03:31:11;;;;;;;3.78;1.02;;;13.60;99.90;;;;;;4959995;28;81651;-76
2021/08/28 03:33:38;;;;;;;5.80;1.23;;;13.50;99.90;;;;;;4959483;28;82176;-76
2021/08/28 03:36:04;;;;;;;5.85;1.25;;;13.50;99.90;;;;;;4960015;28;83386;-76
2021/08/28 03:38:30;;;;;;;4.65;1.67;;;13.50;99.90;;;;;;4961776;28;81781;-75
2021/08/28 03:40:56;;;;;;;4.40;1.60;;;13.60;99.90;;;;;;4959306;28;82116;-75
2021/08/28 03:43:22;;;;;;;4.38;1.27;;;13.50;99.90;;;;;;4959523;28;82613;-75
2021/08/28 03:45:51;;;;;;;4.32;1.33;;;13.50;99.90;;;;;;4959453;28;83754;-75
2021/08/28 03:48:20;;;;;;;2.85;1.35;;;13.50;99.90;;;;;;4975334;28;82524;-74
2021/08/28 03:50:46;;;;;;;3.08;1.30;;;13.60;99.90;;;;;;4979255;28;82764;-75
2021/08/28 03:53:12;;;;;;;2.63;1.17;;;13.60;99.90;;;;;;4960957;28;82468;-75
2021/08/28 03:55:37;;;;;;;5.78;1.65;;;13.70;99.90;;;;;;4958236;28;82356;-75
2021/08/28 03:58:03;;;;;;;3.22;1.27;;;13.70;99.90;;;;;;4960185;28;81853;-75
2021/08/28 04:00:29;;;;;;;3.47;1.20;;;13.70;99.90;;;;;;4959677;28;82088;-74
2021/08/28 04:02:55;;;;;;;4.25;1.77;;;13.70;99.90;;;;;;4955956;28;84119;-74
2021/08/28 04:05:20;;;;;;;3.20;1.30;;;13.60;99.90;;;;;;4958865;28;82686;-74
2021/08/28 04:07:46;;;;;;;3.45;1.23;;;13.70;99.90;;;;;;4962078;28;83002;-74
2021/08/28 04:10:12;;;;;;;4.88;1.20;;;13.70;99.90;;;;;;4959629;28;82920;-73
2021/08/28 04:12:38;;;;;;;2.97;1.42;;;13.70;99.90;;;;;;4971571;28;82490;-73
2021/08/28 04:15:05;;;;;;;3.20;1.40;;;13.70;99.90;;;;;;4958981;28;82400;-73
2021/08/28 04:17:31;;;;;;;3.35;1.23;;;13.70;99.90;;;;;;4963363;28;83608;-73
2021/08/28 04:19:57;;;;;;;4.72;1.17;;;13.70;99.90;;;;;;4948483;28;82168;-72
2021/08/28 04:22:22;;;;;;;3.45;1.38;;;13.70;99.90;;;;;;4960399;28;81822;-73
2021/08/28 04:24:48;;;;;;;3.40;1.30;;;13.70;99.90;;;;;;4957259;28;82274;-73
2021/08/28 04:27:14;;;;;;;2.88;1.27;;;13.70;99.90;;;;;;4953565;28;81925;-75
2021/08/28 04:29:39;;;;;;;2.88;1.30;;;13.70;99.90;;;;;;4951130;28;82072;-76
2021/08/28 04:32:05;;;;;;;2.80;1.13;;;13.80;99.90;;;;;;4964920;28;82013;-75
2021/08/28 04:34:31;;;;;;;3.63;1.40;;;13.80;99.90;;;;;;4949751;28;83902;-75
2021/08/28 04:36:56;;;;;;;2.92;1.30;;;13.80;99.90;;;;;;4951677;28;82338;-75
2021/08/28 04:39:22;;;;;;;3.90;1.23;;;13.90;99.90;;;;;;4895216;28;82507;-74
2021/08/28 04:41:48;;;;;;;5.05;1.40;;;13.90;99.90;;;;;;4965247;28;81701;-74
2021/08/28 04:44:13;;;;;;;2.50;1.13;;;13.80;99.90;;;;;;4950915;28;82342;-74
2021/08/28 04:46:39;;;;;;;4.22;1.30;;;13.80;99.90;;;;;;4955114;28;82500;-74
2021/08/28 04:49:05;;;;;;;3.90;1.55;;;13.80;99.90;;;;;;4944550;28;82299;-74
2021/08/28 04:51:30;;;;;;;5.85;1.48;;;13.90;99.90;;;;;;4958127;28;81698;-74
2021/08/28 04:53:56;;;;;;;4.20;1.38;;;13.90;99.90;;;;;;4958135;28;82975;-75
2021/08/28 04:56:22;;;;;;;6.03;1.38;;;13.90;99.90;;;;;;4946648;28;83000;-75
2021/08/28 04:58:47;;;;;;;2.63;1.10;;;13.90;99.90;;;;;;4959545;28;82914;-74
2021/08/28 05:01:13;;;;;;;2.85;1.50;;;13.90;99.90;;;;;;4957691;28;81965;-75
2021/08/28 05:03:39;;;;;;;4.97;1.30;;;13.90;99.90;;;;;;4946662;28;83097;-75
2021/08/28 05:06:04;;;;;;;4.13;1.55;;;13.90;99.90;;;;;;4953578;28;82081;-77
2021/08/28 05:08:30;;;;;;;3.95;1.40;;;13.90;99.90;;;;;;4958534;28;81970;-74
2021/08/28 05:10:56;;;;;;;4.15;1.30;;;13.90;99.90;;;;;;4958089;28;83186;-76
2021/08/28 05:13:21;;;;;;;6.43;2.10;;;14.00;99.90;;;;;;4958689;28;82055;-77
2021/08/28 05:15:47;;;;;;;6.05;2.28;;;13.90;99.90;;;;;;4957264;28;81971;-73
2021/08/28 05:18:16;;;;;;;4.57;1.85;;;13.90;99.90;;;;;;4956996;28;82265;-75
2021/08/28 05:20:41;;;;;;;4.30;1.75;;;13.90;99.90;;;;;;4958054;28;82311;-75
2021/08/28 05:23:07;;;;;;;6.30;2.00;;;14.00;99.90;;;;;;4956372;28;83903;-75
2021/08/28 05:25:33;;;;;;;5.47;1.80;;;14.00;99.90;;;;;;4957513;28;82959;-75
2021/08/28 05:27:58;;;;;;;5.10;2.10;;;14.00;99.90;;;;;;4959391;28;82061;-75
2021/08/28 05:30:24;;;;;;;3.90;1.65;;;14.00;99.90;;;;;;4958670;28;82874;-75
2021/08/28 05:32:50;;;;;;;4.47;1.83;;;13.90;99.90;;;;;;4959390;28;81754;-76
2021/08/28 05:35:15;;;;;;;4.60;1.48;;;13.70;99.90;;;;;;4956327;28;82025;-75
2021/08/28 05:37:41;;;;;;;5.10;1.65;;;13.70;99.90;;;;;;4959098;28;82253;-76
2021/08/28 05:40:07;;;;;;;4.38;1.80;;;13.80;99.90;;;;;;4957962;28;81861;-74
2021/08/28 05:42:35;;;;;;;3.67;1.67;;;13.90;99.90;;;;;;4953796;28;85187;-74
2021/08/28 05:45:01;;;;;;;5.80;1.90;;;13.80;99.90;;;;;;4957268;28;82363;-76
2021/08/28 05:47:26;;;;;;;6.88;1.55;;;13.90;99.90;;;;;;4951351;28;82914;-77
2021/08/28 05:49:52;;;;;;;5.75;2.08;;;14.00;99.90;;;;;;4959014;28;81878;-75
2021/08/28 05:52:18;;;;;;;4.45;1.55;;;14.00;99.90;;;;;;4958441;28;82221;-75
2021/08/28 05:54:43;;;;;;;6.20;1.88;;;14.10;99.90;;;;;;4953352;28;82046;-75
2021/08/28 05:57:09;;;;;;;3.10;1.55;;;14.20;99.90;;;;;;4956260;28;82112;-75
2021/08/28 05:59:35;;;;;;;4.43;1.30;;;14.20;99.90;;;;;;4958939;28;81941;-76
2021/08/28 06:02:00;;;;;;;2.95;0.90;;;14.20;99.90;;;;;;4958142;28;83994;-75
2021/08/28 06:04:26;;;;;;;2.53;0.70;;;14.30;99.90;;;;;;4964247;28;81960;-74
2021/08/28 06:06:52;;;;;;;2.70;0.60;;;14.30;99.90;;;;;;4958736;28;81912;-74
2021/08/28 06:09:17;;;;;;;2.55;0.80;;;14.40;99.90;;;;;;4955076;28;81919;-74
2021/08/28 06:11:43;;;;;;;2.38;0.73;;;14.40;99.90;;;;;;4951709;28;83304;-76
2021/08/28 06:14:09;;;;;;;3.88;0.95;;;14.40;99.90;;;;;;4957694;28;82961;-76
2021/08/28 06:16:34;;;;;;;5.15;0.80;;;14.40;99.90;;;;;;4954662;28;81880;-75
2021/08/28 06:19:00;;;;;;;3.72;0.82;;;14.40;99.90;;;;;;4947202;28;82316;-75
2021/08/28 06:21:27;;;;;;;3.00;0.80;;;14.30;99.90;;;;;;4948214;28;83428;-75
2021/08/28 06:23:52;;;;;;;4.05;0.50;;;14.30;99.90;;;;;;4951435;28;82350;-75
2021/08/28 06:26:18;;;;;;;3.30;0.95;;;14.30;99.90;;;;;;4956046;28;83199;-75
2021/08/28 06:28:44;;;;;;;4.57;0.90;;;14.40;99.90;;;;;;4957732;28;81860;-75
2021/08/28 06:31:10;;;;;;;3.83;1.13;;;14.40;99.90;;;;;;4958435;28;82877;-75
2021/08/28 06:33:36;;;;;;;2.92;1.10;;;14.40;99.90;;;;;;4957628;28;82549;-75
2021/08/28 06:36:02;;;;;;;3.20;0.98;;;14.50;99.90;;;;;;4952480;28;84614;-75
2021/08/28 06:38:31;;;;;;;3.35;1.65;;;14.60;99.90;;;;;;4958640;28;84005;-75
2021/08/28 06:41:02;;;;;;;5.45;1.50;;;14.80;99.90;;;;;;4958187;28;82068;-75
2021/08/28 06:43:28;;;;;;;4.25;1.75;;;14.90;99.90;;;;;;4956738;28;82841;-75
2021/08/28 06:45:53;;;;;;;5.47;1.77;;;15.30;99.90;;;;;;4951759;28;81787;-74
2021/08/28 06:48:20;;;;;;;5.28;1.77;;;15.50;99.90;;;;;;4957653;28;82293;-74
2021/08/28 06:50:46;;;;;;;4.93;1.95;;;15.60;99.90;;;;;;4956122;28;82280;-74
2021/08/28 06:53:12;;;;;;;7.35;2.33;;;15.50;99.90;;;;;;4955024;28;81536;-74
2021/08/28 06:55:38;;;;;;;5.78;1.70;;;15.30;99.90;;;;;;4953143;28;81997;-74
2021/08/28 06:58:03;;;;;;;6.00;1.90;;;15.10;99.90;;;;;;4962327;28;82002;-74
2021/08/28 07:00:29;;;;;;;4.07;1.75;;;15.10;99.90;;;;;;4946644;28;83668;-74
2021/08/28 07:02:55;;;;;;;2.83;1.27;;;15.00;99.90;;;;;;4958877;28;82449;-74
2021/08/28 07:05:20;;;;;;;5.97;1.55;;;14.90;99.90;;;;;;4959547;28;81962;-73
2021/08/28 07:07:47;;;;;;;4.25;1.52;;;14.80;99.90;;;;;;4959486;28;82770;-73
2021/08/28 07:10:13;;;;;;;4.03;1.55;;;14.80;99.90;;;;;;4959428;28;81881;-74
2021/08/28 07:12:38;;;;;;;5.18;1.70;;;14.80;99.90;;;;;;4958990;28;82095;-73
2021/08/28 07:15:05;;;;;;;7.32;1.67;;;14.80;99.90;;;;;;4959357;28;81894;-73
2021/08/28 07:20:52;;;;;;;3.35;1.48;;;14.70;99.90;;;;;;4952740;28;82045;-74
2021/08/28 07:23:18;;;;;;;4.50;1.80;;;14.70;99.90;;;;;;4961166;28;83045;-73
2021/08/28 07:25:43;;;;;;;6.15;1.83;;;14.70;99.90;;;;;;4956369;28;83258;-74
2021/08/28 07:28:11;;;;;;;5.22;2.08;;;14.80;99.90;;;;;;4957274;28;82341;-73
2021/08/28 07:30:37;;;;;;;4.25;1.83;;;14.80;99.90;;;;;;4953413;28;83223;-73
2021/08/28 07:33:03;;;;;;;5.70;1.83;;;14.90;99.90;;;;;;4959581;28;82580;-74
2021/08/28 07:35:30;;;;;;;4.82;1.50;;;15.00;99.90;;;;;;4951161;28;81892;-73
2021/08/28 07:37:56;;;;;;;6.15;2.17;;;14.90;99.90;;;;;;4958535;28;81896;-73
2021/08/28 07:40:23;;;;;;;5.97;2.03;;;14.90;99.90;;;;;;4959078;28;82543;-73
2021/08/28 07:42:57;;;;;;;4.53;1.75;;;14.80;99.90;;;;;;4957503;28;81878;-73
2021/08/28 07:45:24;;;;;;;4.47;1.50;;;14.80;99.90;;;;;;4951780;28;81906;-73
2021/08/28 07:47:51;;;;;;;4.72;2.10;;;14.60;99.90;;;;;;4958586;28;81944;-74
2021/08/28 07:50:16;;;;;;;8.40;1.83;;;14.50;99.90;;;;;;4950698;28;82766;-74
2021/08/28 07:52:43;;;;;;;5.22;2.03;;;14.50;99.90;;;;;;4955192;28;82893;-74
2021/08/28 07:55:10;;;;;;;7.32;2.47;;;14.40;99.90;;;;;;4959144;28;82076;-74
2021/08/28 07:57:37;;;;;;;5.47;2.45;;;14.40;99.90;;;;;;4957516;28;83039;-73
2021/08/28 08:00:07;;;;;;;5.95;1.92;;;14.40;99.90;;;;;;4953024;28;82726;-73
2021/08/28 08:02:33;;;;;;;6.07;2.35;;;14.30;99.90;;;;;;4957211;28;82164;-74
2021/08/28 08:04:58;;;;;;;6.22;2.22;;;14.40;99.90;;;;;;4957256;28;82011;-73
2021/08/28 08:07:24;;;;;;;6.18;2.15;;;14.40;99.90;;;;;;4952255;28;82106;-74
2021/08/28 08:09:50;;;;;;;6.00;2.38;;;14.40;99.90;;;;;;4959464;28;82357;-74
2021/08/28 08:12:15;;;;;;;6.40;2.13;;;14.50;99.90;;;;;;4958305;28;81934;-74
2021/08/28 08:14:41;;;;;;;6.18;1.90;;;14.70;99.90;;;;;;4953727;28;82817;-73
2021/08/28 08:17:07;;;;;;;5.05;2.20;;;14.90;99.90;;;;;;4957902;28;83222;-73
2021/08/28 08:19:33;;;;;;;4.43;1.55;;;15.00;99.90;;;;;;4959004;28;82051;-73
2021/08/28 08:21:58;;;;;;;4.10;1.52;;;15.30;99.90;;;;;;4959505;28;82076;-74
2021/08/28 08:24:24;;;;;;;4.43;1.60;;;16.00;99.90;;;;;;4958165;28;81678;-73
2021/08/28 08:26:50;;;;;;;5.95;1.70;;;16.80;99.90;;;;;;4957721;28;83264;-74
2021/08/28 08:29:15;;;;;;;4.40;1.52;;;17.30;99.80;;;;;;4958424;28;82044;-74
2021/08/28 08:31:41;;;;;;;4.32;1.30;;;17.90;96.40;;;;;;4957986;28;82424;-73
2021/08/28 08:34:07;;;;;;;4.63;1.52;;;18.20;94.60;;;;;;4956117;28;81912;-74
2021/08/28 08:36:33;;;;;;;6.65;1.60;;;18.20;93.70;;;;;;4958604;28;81905;-74
2021/08/28 08:38:59;;;;;;;3.78;1.42;;;18.00;93.00;;;;;;4957145;28;83230;-73
2021/08/28 08:41:25;;;;;;;4.28;1.48;;;17.70;93.40;;;;;;4958193;28;82819;-74
2021/08/28 08:43:54;;;;;;;5.57;1.73;;;17.50;94.90;;;;;;4958081;28;81966;-74
2021/08/28 08:46:22;;;;;;;5.75;1.65;;;17.50;95.30;;;;;;4958432;28;83013;-73
2021/08/28 08:48:49;;;;;;;7.15;1.90;;;17.50;94.10;;;;;;4952736;28;83107;-74
2021/08/28 08:51:19;;;;;;;2.45;0.60;;;17.40;95.20;;;;;;4957929;28;82209;-73
2021/08/28 08:53:45;;;;;;;3.10;0.70;;;17.50;93.20;;;;;;4951270;28;81960;-74
2021/08/28 08:56:11;;;;;;;1.90;0.52;;;18.00;92.70;;;;;;4958384;28;81966;-75
2021/08/28 08:58:38;;;;;;;3.08;0.35;;;18.10;90.50;;;;;;4956790;28;82318;-74
2021/08/28 09:01:05;;;;;;;2.90;0.63;;;18.40;88.70;;;;;;4957899;28;82049;-76
2021/08/28 09:03:31;;;;;;;1.70;0.40;;;19.10;87.20;;;;;;4957965;28;82880;-76
2021/08/28 09:05:57;;;;;;;2.33;0.40;;;20.10;83.30;;;;;;4958882;28;82905;-76
2021/08/28 09:08:23;;;;;;;1.55;0.43;;;21.20;81.20;;;;;;4959031;28;82533;-76
2021/08/28 09:10:48;;;;;;;2.15;0.73;;;21.90;73.40;;;;;;4952985;28;82980;-76
2021/08/28 09:13:14;;;;;;;3.58;0.52;;;22.00;71.00;;;;;;4957460;28;81795;-76
2021/08/28 09:15:54;;;;;;;3.40;0.68;;;22.20;71.00;;;;;;4958520;28;82794;-76
2021/08/28 09:19:14;;;;;;;3.35;1.00;;;22.60;69.30;;;;;;4949509;28;83267;-76
2021/08/28 09:21:40;;;;;;;3.17;0.50;;;23.00;65.10;;;;;;4959224;28;83509;-75
2021/08/28 09:24:09;;;;;;;2.15;0.63;;;22.60;67.40;;;;;;4947375;28;81970;-75
2021/08/28 09:26:45;;;;;;;2.05;0.55;;;22.40;66.70;;;;;;4954654;28;82088;-75
2021/08/28 09:29:15;;;;;;;5.80;0.43;;;22.20;67.50;;;;;;4959876;28;84837;-75
2021/08/28 09:31:53;;;;;;;3.50;0.73;;;22.20;66.70;;;;;;4954188;28;83036;-75
2021/08/28 09:34:24;;;;;;;2.13;0.50;;;22.00;71.40;;;;;;4952351;28;82301;-75
2021/08/28 09:36:58;;;;;;;2.17;0.70;;;22.10;70.80;;;;;;4959788;28;83265;-77
2021/08/28 09:39:40;;;;;;;3.70;0.65;;;22.50;67.10;;;;;;4953883;28;82650;-76
2021/08/28 09:42:07;;;;;;;4.60;0.40;;;23.10;64.50;;;;;;4956122;28;83203;-73
2021/08/28 09:44:41;;;;;;;1.88;0.22;;;23.70;61.30;;;;;;4956659;28;81928;-74
2021/08/28 09:47:14;;;;;;;1.13;0.45;;;23.90;60.10;;;;;;4959348;28;82306;-73
2021/08/28 09:49:43;;;;;;;3.25;0.38;;;24.10;59.80;;;;;;4959760;28;83213;-73
2021/08/28 09:52:10;;;;;;;2.05;0.63;;;24.30;61.20;;;;;;4957737;28;82386;-74
2021/08/28 09:54:38;;;;;;;2.47;0.70;;;24.30;58.70;;;;;;4956187;28;82791;-73
2021/08/28 09:57:03;;;;;;;4.20;1.25;;;24.40;58.00;;;;;;4957494;28;82493;-74
2021/08/28 09:59:29;;;;;;;4.15;1.23;;;24.70;59.10;;;;;;4957253;28;82082;-74
2021/08/28 10:01:55;;;;;;;7.80;2.03;;;25.10;57.60;;;;;;4957034;28;82773;-74
2021/08/28 10:04:21;;;;;;;6.13;1.75;;;24.70;57.20;;;;;;4956153;28;82305;-73
2021/08/28 10:06:48;;;;;;;1.83;0.68;;;24.30;59.70;;;;;;4956928;28;82367;-74
2021/08/28 10:09:15;;;;;;;5.43;0.90;;;23.80;58.40;;;;;;4954845;28;83026;-73
2021/08/28 10:11:46;;;;;;;3.83;0.80;;;23.50;60.80;;;;;;4959779;28;83359;-73
2021/08/28 10:14:18;;;;;;;5.63;1.45;;;23.60;59.60;;;;;;4955720;28;82101;-73
2021/08/28 10:16:45;;;;;;;2.05;0.75;;;23.20;61.70;;;;;;4960539;28;83394;-74
2021/08/28 10:19:16;;;;;;;4.22;1.23;;;23.10;61.10;;;;;;4958505;28;83553;-73
2021/08/28 10:21:44;;;;;;;7.65;1.52;;;23.30;61.90;;;;;;4956985;28;84125;-73
2021/08/28 10:27:32;;;;;;;3.38;1.20;;;25.30;58.30;;;;;;4959206;28;82051;-74
2021/08/28 10:29:58;;;;;;;2.55;1.23;;;26.60;55.90;;;;;;4960745;28;82797;-74
2021/08/28 10:32:23;;;;;;;3.45;1.38;;;27.10;54.90;;;;;;4957850;28;82374;-75
2021/08/28 10:34:50;;;;;;;5.10;1.45;;;27.80;54.20;;;;;;4951036;28;81947;-74
2021/08/28 10:37:17;;;;;;;4.60;1.50;;;27.80;50.50;;;;;;4957887;28;81918;-73
2021/08/28 10:39:45;;;;;;;4.82;1.20;;;27.00;51.50;;;;;;4956679;28;82515;-73
2021/08/28 10:42:11;;;;;;;9.43;3.08;;;25.40;54.50;;;;;;4873513;28;326899;-73
2021/08/28 10:44:39;;;;;;;14.27;3.88;;;23.60;60.10;;;;;;4954355;28;83003;-73
2021/08/28 10:47:11;;;;;;;1.75;0.57;;;22.10;63.60;;;;;;4953862;28;81909;-75
2021/08/28 10:49:52;;;;;;;7.95;2.13;;;20.80;63.80;;;;;;4960557;28;82006;-75
2021/08/28 10:52:20;;;;;;;4.30;0.57;;;19.90;71.20;;;;;;4961273;28;82833;-75
2021/08/28 10:54:58;;;;;;;1.38;0.22;;;19.00;71.80;;;;;;4960612;28;81886;-75
2021/08/28 10:57:28;;;;;;;0.90;0.20;;;18.30;74.60;;;;;;4956964;28;81890;-75
2021/08/28 11:00:02;;;;;;;1.40;0.20;;;17.80;77.70;;;;;;4959910;28;82608;-75
2021/08/28 11:02:52;;;;;;;2.05;0.30;;;17.40;80.50;;;;;;4958872;28;82357;-76
2021/08/28 11:05:35;;;;;;;1.38;0.30;;;17.10;82.20;;;;;;4958910;28;81938;-75
2021/08/28 11:08:17;;;;;;;7.55;1.25;;;16.90;83.90;;;;;;4960914;28;82278;-76
2021/08/28 11:11:03;;;;;;;1.42;0.20;;;16.70;86.60;;;;;;4948940;28;83259;-75
2021/08/28 11:14:12;;;;;;;1.75;0.10;;;16.70;86.80;;;;;;4954635;28;82874;-75
2021/08/28 11:16:43;;;;;;;1.23;0.20;;;17.00;88.00;;;;;;4916804;28;81903;-76
2021/08/28 11:19:30;;;;;;;2.15;0.20;;;17.20;86.00;;;;;;4907806;28;82620;-75
2021/08/28 11:21:56;;;;;;;1.50;0.40;;;17.60;84.40;;;;;;4937798;28;82575;-75
2021/08/28 11:24:24;;;;;;;0.60;0.10;;;18.10;81.30;;;;;;4953080;28;81720;-75
2021/08/28 11:26:53;;;;;;;1.33;0.17;;;18.40;78.80;;;;;;4954540;28;81881;-75
2021/08/28 11:29:30;;;;;;;0.70;0.10;;;18.50;78.60;;;;;;4960400;28;81641;-75
2021/08/28 11:32:17;;;;;;;0.75;0.15;;;18.60;81.60;;;;;;4958137;28;82395;-75
2021/08/28 11:34:45;;;;;;;0.80;0.25;;;18.60;80.30;;;;;;4959352;28;83042;-75
2021/08/28 11:37:31;;;;;;;0.70;0.10;;;18.80;80.00;;;;;;4956713;28;82886;-75
2021/08/28 11:40:23;;;;;;;3.33;0.28;;;18.80;81.40;;;;;;4955028;28;85742;-75
2021/08/28 11:42:49;;;;;;;0.75;0.10;;;19.30;78.10;;;;;;4954909;28;83656;-75
2021/08/28 11:45:17;;;;;;;2.60;0.30;;;19.40;77.10;;;;;;4957500;28;81865;-75
2021/08/28 11:47:43;;;;;;;0.52;0.10;;;19.30;75.20;;;;;;4958880;28;82468;-76
2021/08/28 11:50:09;;;;;;;0.95;0.20;;;19.00;76.10;;;;;;4962372;28;82371;-75
2021/08/28 11:52:36;;;;;;;0.73;0.13;;;19.20;75.00;;;;;;4958133;28;82829;-75
2021/08/28 11:55:09;;;;;;;1.23;0.30;;;19.40;73.20;;;;;;4964778;28;82500;-75
2021/08/28 11:57:35;;;;;;;1.05;0.30;;;19.50;72.70;;;;;;4961825;28;82099;-75
2021/08/28 12:00:04;;;;;;;0.73;0.20;;;20.00;73.10;;;;;;4958086;28;82012;-75
2021/08/28 12:02:29;;;;;;;1.20;0.20;;;20.90;72.60;;;;;;4960549;28;82802;-75
2021/08/28 12:04:55;;;;;;;0.80;0.20;;;21.50;70.40;;;;;;4966987;28;83712;-75
2021/08/28 12:07:21;;;;;;;1.00;0.30;;;22.50;67.50;;;;;;4954570;28;82373;-73
2021/08/28 12:09:48;;;;;;;0.95;0.32;;;22.60;64.50;;;;;;4953879;28;82835;-73
2021/08/28 12:12:13;;;;;;;0.70;0.20;;;23.10;65.90;;;;;;4962304;28;83589;-73
2021/08/28 12:14:39;;;;;;;0.80;0.30;;;23.50;63.60;;;;;;4951779;28;83141;-73
2021/08/28 12:17:06;;;;;;;1.48;0.40;;;22.80;65.80;;;;;;4963834;28;81683;-74
2021/08/28 12:19:34;;;;;;;1.00;0.30;;;22.90;62.60;;;;;;4959073;28;81899;-72
2021/08/28 12:22:04;;;;;;;1.30;0.32;;;22.60;60.60;;;;;;4957248;28;82061;-72
2021/08/28 12:24:31;;;;;;;0.80;0.25;;;21.70;63.20;;;;;;4964031;28;82446;-74
2021/08/28 12:27:08;;;;;;;1.10;0.32;;;21.70;67.00;;;;;;4955045;28;82742;-75
2021/08/28 12:29:46;;;;;;;0.80;0.30;;;22.40;65.80;;;;;;4956444;28;82224;-75
2021/08/28 12:32:19;;;;;;;0.95;0.40;;;23.10;65.70;;;;;;4959368;28;81908;-72
2021/08/28 12:34:45;;;;;;;1.23;0.40;;;23.40;61.40;;;;;;4962442;28;81947;-73
2021/08/28 12:37:17;;;;;;;1.70;0.63;;;23.70;62.80;;;;;;4957484;28;82009;-73
2021/08/28 12:39:47;;;;;;;0.98;0.30;;;23.60;63.50;;;;;;4956153;28;82203;-73
2021/08/28 12:42:15;;;;;;;1.10;0.50;;;23.70;62.40;;;;;;4956268;28;82531;-73
2021/08/28 12:44:45;;;;;;;1.08;0.35;;;23.70;63.30;;;;;;4951169;28;82280;-72
2021/08/28 12:47:13;;;;;;;1.00;0.40;;;23.90;63.80;;;;;;4953080;28;81966;-73
2021/08/28 12:49:40;;;;;;;1.15;0.30;;;23.90;63.10;;;;;;4958341;28;81934;-73
2021/08/28 12:52:08;;;;;;;2.05;0.30;;;23.70;63.10;;;;;;4957670;28;83047;-73
2021/08/28 12:54:46;;;;;;;1.23;0.40;;;23.50;64.30;;;;;;4952814;28;82889;-73
2021/08/28 12:57:18;;;;;;;1.60;0.40;;;23.30;63.30;;;;;;4962648;28;81849;-75
2021/08/28 12:59:51;;;;;;;1.38;0.60;;;22.90;64.10;;;;;;4961147;28;81990;-74
2021/08/28 13:02:20;;;;;;;1.98;0.43;;;22.60;65.20;;;;;;4950366;28;81826;-75
2021/08/28 13:04:47;;;;;;;2.13;0.40;;;22.20;66.30;;;;;;4958234;28;82238;-74
2021/08/28 13:07:21;;;;;;;2.10;0.30;;;21.70;66.70;;;;;;4953848;28;82281;-74
2021/08/28 13:09:54;;;;;;;1.15;0.35;;;21.10;68.60;;;;;;4958168;28;82945;-74
2021/08/28 13:12:37;;;;;;;4.40;0.40;;;20.90;70.60;;;;;;4956272;28;82773;-74
2021/08/28 13:15:04;;;;;;;1.55;0.43;;;20.70;71.50;;;;;;4953645;28;82624;-74
2021/08/28 13:17:29;;;;;;;1.80;0.38;;;20.60;72.10;;;;;;4951842;28;83544;-74
2021/08/28 13:20:07;;;;;;;2.33;0.70;;;20.50;73.10;;;;;;4955439;28;82485;-74
2021/08/28 13:22:35;;;;;;;1.02;0.30;;;20.30;72.70;;;;;;4959148;28;82482;-74
2021/08/28 13:25:01;;;;;;;2.28;0.50;;;20.10;72.90;;;;;;4957351;28;83170;-74
2021/08/28 13:27:29;;;;;;;2.25;0.55;;;19.80;73.80;;;;;;4955512;28;82065;-74
2021/08/28 13:30:18;;;;;;;1.58;0.43;;;19.40;75.90;;;;;;4957954;28;81900;-74
2021/08/28 13:33:08;;;;;;;2.08;0.50;;;19.10;77.80;;;;;;4950624;28;82805;-74
2021/08/28 13:35:39;;;;;;;2.10;0.28;;;18.90;78.70;;;;;;4953739;28;81638;-74
2021/08/28 13:38:09;;;;;;;1.77;0.40;;;18.70;79.00;;;;;;4962727;28;82239;-75
2021/08/28 13:40:35;;;;;;;1.30;0.60;;;18.50;79.90;;;;;;4956314;28;83438;-74
2021/08/28 13:43:01;;;;;;;1.73;0.50;;;18.30;80.10;;;;;;4952775;28;83177;-74
2021/08/28 13:45:27;;;;;;;1.52;0.40;;;18.40;79.50;;;;;;4958080;28;83020;-74
2021/08/28 13:47:53;;;;;;;2.17;0.30;;;18.60;78.10;;;;;;4957993;28;81829;-74
2021/08/28 13:50:20;;;;;;;1.70;0.30;;;18.80;78.60;;;;;;4962388;28;82023;-74
2021/08/28 13:52:48;;;;;;;1.83;0.30;;;18.90;78.60;;;;;;4958067;28;82284;-74
2021/08/28 13:55:16;;;;;;;1.25;0.35;;;18.90;78.30;;;;;;4951647;28;81718;-75
2021/08/28 13:57:44;;;;;;;4.00;0.30;;;18.90;76.30;;;;;;4963430;28;82676;-75
2021/08/28 14:00:12;;;;;;;1.20;0.30;;;18.80;76.50;;;;;;4951699;28;82432;-75
2021/08/28 14:02:38;;;;;;;2.53;0.40;;;18.60;77.10;;;;;;4962485;28;85361;-74
2021/08/28 14:05:06;;;;;;;1.30;0.45;;;18.50;80.80;;;;;;4962785;28;82564;-75
2021/08/28 14:07:32;;;;;;;1.08;0.22;;;18.40;80.30;;;;;;4957522;28;82947;-74
2021/08/28 14:09:58;;;;;;;1.75;0.30;;;18.10;82.10;;;;;;4958387;28;81912;-74
2021/08/28 14:12:27;;;;;;;3.22;0.60;;;17.80;82.30;;;;;;4955376;28;81959;-75
2021/08/28 14:14:54;;;;;;;1.55;0.30;;;17.50;84.60;;;;;;4953933;28;82385;-75
2021/08/28 14:17:19;;;;;;;2.15;0.38;;;17.00;85.40;;;;;;4958645;28;81884;-74
2021/08/28 14:19:45;;;;;;;3.08;0.52;;;16.70;88.30;;;;;;4958172;28;81873;-75
2021/08/28 14:22:11;;;;;;;2.85;0.32;;;16.20;90.80;;;;;;4957636;28;83266;-74
2021/08/28 14:24:37;;;;;;;3.97;0.65;;;15.70;93.20;;;;;;4958557;28;82968;-74
2021/08/28 14:27:03;;;;;;;4.60;0.75;;;15.30;94.50;;;;;;4957846;28;81723;-74
2021/08/28 14:29:31;;;;;;;2.03;0.70;;;14.80;99.90;;;;;;4958941;28;82736;-73
2021/08/28 14:31:57;;;;;;;1.95;0.40;;;14.50;99.90;;;;;;4956873;28;84756;-73
2021/08/28 14:34:23;;;;;;;2.17;0.25;;;14.50;99.90;;;;;;4957478;28;84054;-73
2021/08/28 14:36:51;;;;;;;1.52;0.20;;;14.40;99.90;;;;;;4955510;28;81974;-73
2021/08/28 14:39:18;;;;;;;1.38;0.30;;;14.20;99.90;;;;;;4956895;28;83036;-73
2021/08/28 14:41:43;;;;;;;1.25;0.20;;;14.20;99.90;;;;;;4956732;28;83042;-73
2021/08/28 14:44:10;;;;;;;2.15;0.20;;;14.20;99.90;;;;;;4956855;28;81998;-73
2021/08/28 14:46:36;;;;;;;1.42;0.10;;;14.30;99.90;;;;;;4957482;28;82145;-73
2021/08/28 14:49:03;;;;;;;1.95;0.28;;;14.40;99.90;;;;;;4956287;28;82464;-73
2021/08/28 14:51:28;;;;;;;1.45;0.50;;;14.60;99.90;;;;;;4957998;28;83544;-73
2021/08/28 14:53:54;;;;;;;2.72;0.45;;;14.60;99.90;;;;;;4958242;28;82390;-73
2021/08/28 14:56:20;;;;;;;1.42;0.20;;;14.70;99.90;;;;;;4956467;28;82978;-73
2021/08/28 14:58:46;;;;;;;1.77;0.20;;;14.70;99.90;;;;;;4960909;28;82744;-73
2021/08/28 15:01:12;;;;;;;2.92;0.55;;;14.80;99.90;;;;;;4958700;28;82123;-73
2021/08/28 15:03:39;;;;;;;1.40;0.30;;;14.80;99.90;;;;;;4960451;28;83484;-73
2021/08/28 15:06:06;;;;;;;0.88;0.20;;;14.70;99.90;;;;;;4959862;28;81731;-74
2021/08/28 15:08:32;;;;;;;1.05;0.20;;;14.70;99.90;;;;;;4961652;28;82228;-73
2021/08/28 15:10:58;;;;;;;2.45;0.45;;;14.80;99.90;;;;;;4953289;28;82175;-74
2021/08/28 15:13:24;;;;;;;1.55;0.30;;;14.90;99.90;;;;;;4960227;28;81851;-74
2021/08/28 15:15:49;;;;;;;0.90;0.20;;;14.80;99.90;;;;;;4959580;28;82107;-74
2021/08/28 15:18:16;;;;;;;1.00;0.20;;;14.70;99.90;;;;;;4954363;28;81978;-74
2021/08/28 15:20:42;;;;;;;1.00;0.15;;;14.70;99.90;;;;;;4959875;28;83757;-74
2021/08/28 15:23:09;;;;;;;1.95;0.20;;;14.70;99.90;;;;;;4961018;28;82981;-74
2021/08/28 15:25:35;;;;;;;1.30;0.20;;;14.90;99.90;;;;;;4959770;28;82106;-74
2021/08/28 15:28:00;;;;;;;1.67;0.20;;;15.00;99.90;;;;;;4960607;28;81839;-73
2021/08/28 15:30:26;;;;;;;0.70;0.10;;;15.10;99.90;;;;;;4959210;28;81921;-74
2021/08/28 15:32:52;;;;;;;1.88;0.20;;;15.10;98.10;;;;;;4960393;28;82060;-74
2021/08/28 15:35:17;;;;;;;0.63;0.10;;;15.10;99.30;;;;;;4959955;28;82700;-74
2021/08/28 15:37:43;;;;;;;2.15;0.20;;;15.00;99.90;;;;;;4963059;28;81710;-74
2021/08/28 15:40:10;;;;;;;3.00;0.50;;;14.90;99.70;;;;;;4961616;28;82353;-74
2021/08/28 15:42:35;;;;;;;1.30;0.10;;;14.80;99.90;;;;;;4961338;28;84495;-73
2021/08/28 15:45:06;;;;;;;2.70;0.30;;;14.60;99.10;;;;;;4962550;28;82979;-74
2021/08/28 15:47:32;;;;;;;17.80;5.47;;;14.60;99.90;;;;;;4963047;28;82463;-73
2021/08/28 15:49:57;;;;;;;27.58;8.10;;;14.60;99.90;;;;;;4962549;28;82596;-73
2021/08/28 15:52:25;;;;;;;17.77;4.75;;;14.60;99.30;;;;;;4960919;28;82434;-74
2021/08/28 15:54:54;;;;;;;25.73;7.22;;;14.50;99.90;;;;;;4961455;28;81901;-74
2021/08/28 15:57:19;;;;;;;15.27;2.92;;;14.50;99.90;;;;;;4961403;28;82298;-73
2021/08/28 15:59:46;;;;;;;6.75;1.20;;;14.60;99.90;;;;;;4959926;28;82049;-73